Time;durP1;ratioP1;P1;durP2;ratioP2;P2;SDS_P1;SDS_P2;PMS_P1;PMS_P2;Temp;Humidity;BMP_temperature;BMP_pressure;BME280_temperature;BME280_humidity;BME280_pressure;Samples;Min_cycle;Max_cycle;Signal;HPM_P1;HPM_P2
2023/05/08 00:00:38;;;;;;;8.55;2.72;;;;;;;;;;5008676;28;20486;-61
2023/05/08 00:03:16;;;;;;;8.00;2.90;;;;;;;;;;4996205;28;20065;-58
2023/05/08 00:05:42;;;;;;;6.50;2.70;;;;;;;;;;4990894;28;20058;-62
2023/05/08 00:08:08;;;;;;;8.48;2.83;;;;;;;;;;4993020;28;20064;-59
2023/05/08 00:10:34;;;;;;;10.38;4.03;;;;;;;;;;4994777;28;20061;-60
2023/05/08 00:13:00;;;;;;;7.32;2.83;;;;;;;;;;4990838;28;20048;-59
2023/05/08 00:15:26;;;;;;;9.60;3.38;;;;;;;;;;4990349;28;20062;-59
2023/05/08 00:17:52;;;;;;;9.38;2.80;;;;;;;;;;4991922;28;20061;-61
2023/05/08 00:20:18;;;;;;;5.30;2.47;;;;;;;;;;4997204;28;20368;-58
2023/05/08 00:22:44;;;;;;;7.40;2.50;;;;;;;;;;4992171;28;20053;-60
2023/05/08 00:25:10;;;;;;;5.20;2.08;;;;;;;;;;4990815;28;20058;-58
2023/05/08 00:27:35;;;;;;;6.10;2.75;;;;;;;;;;4991969;28;20057;-60
2023/05/08 00:30:03;;;;;;;6.05;2.50;;;;;;;;;;4990828;28;20539;-59
2023/05/08 00:32:29;;;;;;;7.60;2.97;;;;;;;;;;4991310;28;20045;-59
2023/05/08 00:34:55;;;;;;;7.40;2.53;;;;;;;;;;4989700;28;20057;-59
2023/05/08 00:37:21;;;;;;;8.65;2.85;;;;;;;;;;4992428;28;20057;-61
2023/05/08 00:39:47;;;;;;;10.07;3.10;;;;;;;;;;4970252;28;20076;-60
2023/05/08 00:42:13;;;;;;;6.25;2.80;;;;;;;;;;4991955;28;20494;-59
2023/05/08 00:44:40;;;;;;;6.95;2.92;;;;;;;;;;4991865;28;20066;-59
2023/05/08 00:47:06;;;;;;;7.40;2.88;;;;;;;;;;4968657;28;21756;-59
2023/05/08 00:49:34;;;;;;;7.43;2.53;;;;;;;;;;4990618;28;20536;-59
2023/05/08 00:52:07;;;;;;;8.50;3.03;;;;;;;;;;4969124;28;20054;-60
2023/05/08 00:54:35;;;;;;;8.10;2.58;;;;;;;;;;4990479;28;20284;-59
2023/05/08 00:57:05;;;;;;;6.68;2.70;;;;;;;;;;4988192;28;20053;-58
2023/05/08 00:59:32;;;;;;;8.27;2.60;;;;;;;;;;4988540;28;20048;-58
2023/05/08 01:02:00;;;;;;;9.70;3.00;;;;;;;;;;4992084;28;20895;-58
2023/05/08 01:04:26;;;;;;;10.20;3.17;;;;;;;;;;4974894;28;22192;-59
2023/05/08 01:06:54;;;;;;;7.50;3.00;;;;;;;;;;4990913;28;20231;-59
2023/05/08 01:09:19;;;;;;;9.65;3.40;;;;;;;;;;4989898;28;20049;-59
2023/05/08 01:12:06;;;;;;;7.35;3.50;;;;;;;;;;4997300;28;20046;-58
2023/05/08 01:15:13;;;;;;;8.13;3.45;;;;;;;;;;4990034;28;20533;-60
2023/05/08 01:17:59;;;;;;;7.55;2.75;;;;;;;;;;4991948;28;20054;-60
2023/05/08 01:20:35;;;;;;;7.70;3.33;;;;;;;;;;4996034;28;20287;-60
2023/05/08 01:23:32;;;;;;;9.40;3.33;;;;;;;;;;4992517;28;20444;-60
2023/05/08 01:26:36;;;;;;;8.25;3.50;;;;;;;;;;4988094;28;20318;-58
2023/05/08 01:29:29;;;;;;;11.75;3.72;;;;;;;;;;4989896;28;20057;-59
2023/05/08 01:32:11;;;;;;;9.10;3.17;;;;;;;;;;4991316;28;20426;-60
2023/05/08 01:34:54;;;;;;;9.77;3.20;;;;;;;;;;4989845;28;21888;-61
2023/05/08 01:37:29;;;;;;;10.68;3.92;;;;;;;;;;4992154;28;20061;-59
2023/05/08 01:40:08;;;;;;;8.48;3.10;;;;;;;;;;4990959;28;20527;-58
2023/05/08 01:42:34;;;;;;;11.43;3.47;;;;;;;;;;4992411;28;20062;-60
2023/05/08 01:45:04;;;;;;;16.77;4.03;;;;;;;;;;4991116;28;20135;-59
2023/05/08 01:47:35;;;;;;;6.35;3.45;;;;;;;;;;4994010;28;20064;-57
2023/05/08 01:50:12;;;;;;;7.22;3.35;;;;;;;;;;4990982;28;20528;-59
2023/05/08 01:52:45;;;;;;;7.88;3.05;;;;;;;;;;4996463;28;20401;-59
2023/05/08 01:55:23;;;;;;;5.35;2.83;;;;;;;;;;4991745;28;20056;-59
2023/05/08 01:57:53;;;;;;;8.25;3.50;;;;;;;;;;4992509;28;20061;-59
2023/05/08 02:00:22;;;;;;;8.90;3.30;;;;;;;;;;4989206;28;20081;-60
2023/05/08 02:02:50;;;;;;;9.93;3.42;;;;;;;;;;4989832;28;20054;-59
2023/05/08 02:05:17;;;;;;;6.68;3.85;;;;;;;;;;4988030;28;20105;-59
2023/05/08 02:07:45;;;;;;;11.57;3.85;;;;;;;;;;4989175;28;20057;-59
2023/05/08 02:10:14;;;;;;;11.23;3.53;;;;;;;;;;4993892;28;20272;-58
2023/05/08 02:12:42;;;;;;;12.75;3.85;;;;;;;;;;4988872;28;20073;-57
2023/05/08 02:15:11;;;;;;;9.35;3.25;;;;;;;;;;4984015;28;20049;-55
2023/05/08 02:17:39;;;;;;;6.15;3.50;;;;;;;;;;4988979;28;20065;-60
2023/05/08 02:20:13;;;;;;;11.05;4.20;;;;;;;;;;4987166;28;20065;-60
2023/05/08 02:22:50;;;;;;;7.57;3.73;;;;;;;;;;4992540;28;20057;-55
2023/05/08 02:25:17;;;;;;;8.55;3.90;;;;;;;;;;4986584;28;20513;-58
2023/05/08 02:27:46;;;;;;;7.20;3.72;;;;;;;;;;4968388;28;20572;-59
2023/05/08 02:30:16;;;;;;;10.95;4.00;;;;;;;;;;4985632;28;20058;-59
2023/05/08 02:32:45;;;;;;;8.40;3.85;;;;;;;;;;4988263;28;20057;-58
2023/05/08 02:35:51;;;;;;;12.00;3.90;;;;;;;;;;4966816;28;20045;-58
2023/05/08 02:39:31;;;;;;;9.27;4.10;;;;;;;;;;4985430;28;20061;-59
2023/05/08 02:43:13;;;;;;;8.02;3.60;;;;;;;;;;4988945;28;20050;-59
2023/05/08 02:47:07;;;;;;;12.55;4.10;;;;;;;;;;4985458;28;20061;-57
2023/05/08 02:50:56;;;;;;;10.30;3.90;;;;;;;;;;4987400;28;22010;-58
2023/05/08 02:54:47;;;;;;;13.38;3.80;;;;;;;;;;4986680;28;20123;-58
2023/05/08 02:59:01;;;;;;;9.15;3.95;;;;;;;;;;4986383;28;20133;-57
2023/05/08 03:02:57;;;;;;;12.68;4.47;;;;;;;;;;4987970;28;20080;-60
2023/05/08 03:06:38;;;;;;;12.80;4.90;;;;;;;;;;4986740;28;20045;-57
2023/05/08 03:10:21;;;;;;;9.25;4.43;;;;;;;;;;4987057;28;20124;-57
2023/05/08 03:14:02;;;;;;;9.25;5.00;;;;;;;;;;4982208;28;20695;-57
2023/05/08 03:17:42;;;;;;;10.02;5.20;;;;;;;;;;4987416;28;20144;-58
2023/05/08 03:21:22;;;;;;;13.63;5.80;;;;;;;;;;4988620;28;20647;-59
2023/05/08 03:25:03;;;;;;;10.15;5.40;;;;;;;;;;4985900;28;20402;-56
2023/05/08 03:28:43;;;;;;;12.52;5.72;;;;;;;;;;4986381;28;20093;-58
2023/05/08 03:32:23;;;;;;;12.43;6.40;;;;;;;;;;4988982;28;20174;-58
2023/05/08 03:36:05;;;;;;;13.10;6.53;;;;;;;;;;4985435;28;20046;-59
2023/05/08 03:39:45;;;;;;;15.88;6.80;;;;;;;;;;4985752;28;20045;-58
2023/05/08 03:43:26;;;;;;;13.13;6.50;;;;;;;;;;4984744;28;20498;-58
2023/05/08 03:47:06;;;;;;;16.83;7.10;;;;;;;;;;4986386;28;20100;-58
2023/05/08 03:50:46;;;;;;;11.23;6.82;;;;;;;;;;4986738;28;20034;-57
2023/05/08 03:54:29;;;;;;;14.20;7.15;;;;;;;;;;4990313;28;20416;-59
2023/05/08 03:58:07;;;;;;;15.20;7.28;;;;;;;;;;4989712;28;20425;-57
2023/05/08 04:01:08;;;;;;;13.95;7.30;;;;;;;;;;4989221;28;20132;-59
2023/05/08 04:04:50;;;;;;;13.02;7.65;;;;;;;;;;4990330;28;22149;-59
2023/05/08 04:08:48;;;;;;;13.00;7.32;;;;;;;;;;4989266;28;20058;-59
2023/05/08 04:12:33;;;;;;;11.98;7.43;;;;;;;;;;4989771;28;20274;-62
2023/05/08 04:16:14;;;;;;;13.90;6.85;;;;;;;;;;4990250;28;20258;-59
2023/05/08 04:19:54;;;;;;;18.58;7.18;;;;;;;;;;4993182;28;20037;-58
2023/05/08 04:23:35;;;;;;;15.40;7.20;;;;;;;;;;4990341;28;20466;-60
2023/05/08 04:27:15;;;;;;;17.08;7.60;;;;;;;;;;4987907;28;20128;-59
2023/05/08 04:30:55;;;;;;;14.77;7.32;;;;;;;;;;4990908;28;20405;-59
2023/05/08 04:34:36;;;;;;;13.90;7.80;;;;;;;;;;4988484;28;20065;-59
2023/05/08 04:38:16;;;;;;;16.33;6.90;;;;;;;;;;4989589;28;20449;-62
2023/05/08 04:42:01;;;;;;;13.43;7.40;;;;;;;;;;4989173;28;20053;-61
2023/05/08 04:45:38;;;;;;;15.55;7.35;;;;;;;;;;4989339;28;20275;-61
2023/05/08 04:49:18;;;;;;;12.15;7.60;;;;;;;;;;4988710;28;20104;-64
2023/05/08 04:52:58;;;;;;;14.30;6.50;;;;;;;;;;4991454;28;20042;-61
2023/05/08 04:56:39;;;;;;;11.27;6.75;;;;;;;;;;4989248;28;20054;-60
2023/05/08 05:00:20;;;;;;;15.00;6.75;;;;;;;;;;4995587;28;20464;-61
2023/05/08 05:04:01;;;;;;;16.38;6.68;;;;;;;;;;4991276;28;20062;-63
2023/05/08 05:07:41;;;;;;;10.90;6.35;;;;;;;;;;4989761;28;20042;-61
2023/05/08 05:11:21;;;;;;;12.43;6.75;;;;;;;;;;4993028;28;20286;-66
2023/05/08 05:15:02;;;;;;;17.55;6.22;;;;;;;;;;4986731;28;20065;-68
2023/05/08 05:18:43;;;;;;;13.38;6.45;;;;;;;;;;4985671;28;20092;-62
2023/05/08 05:22:23;;;;;;;14.07;6.55;;;;;;;;;;4988976;28;20881;-64
2023/05/08 05:26:04;;;;;;;12.38;6.50;;;;;;;;;;4986664;28;20056;-62
2023/05/08 05:29:45;;;;;;;14.43;6.80;;;;;;;;;;4987637;28;20505;-63
2023/05/08 05:33:26;;;;;;;11.50;6.40;;;;;;;;;;4986050;28;20131;-61
2023/05/08 05:37:06;;;;;;;15.65;7.00;;;;;;;;;;4985629;28;20132;-63
2023/05/08 05:40:46;;;;;;;15.18;7.70;;;;;;;;;;4986169;28;20056;-61
2023/05/08 05:44:27;;;;;;;17.55;7.93;;;;;;;;;;4986572;28;20649;-62
2023/05/08 05:48:07;;;;;;;13.30;7.70;;;;;;;;;;4987747;28;20173;-62
2023/05/08 05:51:47;;;;;;;13.68;8.38;;;;;;;;;;4987151;28;20496;-64
2023/05/08 05:55:28;;;;;;;14.35;9.20;;;;;;;;;;4985842;28;20046;-63
2023/05/08 05:59:08;;;;;;;14.32;9.00;;;;;;;;;;4986887;28;20053;-61
2023/05/08 06:02:49;;;;;;;18.63;8.73;;;;;;;;;;4986414;28;20619;-62
2023/05/08 06:06:44;;;;;;;14.38;9.35;;;;;;;;;;4986358;28;20064;-63
2023/05/08 06:09:47;;;;;;;17.85;10.25;;;;;;;;;;4988492;28;20072;-64
2023/05/08 06:12:53;;;;;;;19.52;9.80;;;;;;;;;;4984390;28;20057;-62
2023/05/08 06:16:34;;;;;;;25.73;10.07;;;;;;;;;;4984908;28;20740;-64
2023/05/08 06:20:15;;;;;;;15.20;10.07;;;;;;;;;;4984633;28;20140;-63
2023/05/08 06:23:55;;;;;;;17.55;9.85;;;;;;;;;;4992161;28;20195;-61
2023/05/08 06:27:36;;;;;;;16.10;10.13;;;;;;;;;;4983524;28;20053;-62
2023/05/08 06:31:16;;;;;;;19.80;10.07;;;;;;;;;;4983936;28;20473;-62
2023/05/08 06:34:56;;;;;;;21.80;11.13;;;;;;;;;;4986942;28;20069;-62
2023/05/08 06:38:37;;;;;;;25.60;10.32;;;;;;;;;;4986040;28;20749;-63
2023/05/08 06:42:17;;;;;;;18.63;10.95;;;;;;;;;;4985041;28;20057;-65
2023/05/08 06:45:57;;;;;;;19.83;10.85;;;;;;;;;;4985978;28;20108;-62
2023/05/08 06:49:38;;;;;;;17.17;10.18;;;;;;;;;;4986673;28;20132;-62
2023/05/08 06:53:18;;;;;;;18.90;10.00;;;;;;;;;;4987475;28;20050;-68
2023/05/08 06:56:58;;;;;;;19.73;11.50;;;;;;;;;;4986930;28;20472;-69
2023/05/08 07:00:39;;;;;;;17.75;10.50;;;;;;;;;;4988967;28;20401;-61
2023/05/08 07:04:19;;;;;;;13.88;10.32;;;;;;;;;;4985433;28;20123;-60
2023/05/08 07:08:00;;;;;;;17.65;9.45;;;;;;;;;;4987330;28;20057;-63
2023/05/08 07:11:40;;;;;;;19.10;10.77;;;;;;;;;;4989537;28;20499;-60
2023/05/08 07:15:21;;;;;;;22.25;10.18;;;;;;;;;;4986748;28;20121;-59
2023/05/08 07:19:01;;;;;;;15.55;9.93;;;;;;;;;;4987122;28;20054;-62
2023/05/08 07:22:41;;;;;;;16.80;9.55;;;;;;;;;;4991995;28;22181;-59
2023/05/08 07:26:22;;;;;;;16.90;9.50;;;;;;;;;;4980044;28;20055;-59
2023/05/08 07:30:03;;;;;;;14.60;9.27;;;;;;;;;;4990420;28;20049;-62
2023/05/08 07:33:43;;;;;;;21.40;9.40;;;;;;;;;;4989440;28;20058;-60
2023/05/08 07:37:23;;;;;;;20.15;10.02;;;;;;;;;;4988662;28;20057;-62
2023/05/08 07:41:04;;;;;;;19.35;8.80;;;;;;;;;;4988115;28;20058;-60
2023/05/08 07:44:44;;;;;;;13.48;8.50;;;;;;;;;;4987551;28;20440;-61
2023/05/08 07:48:27;;;;;;;18.05;7.55;;;;;;;;;;4990101;28;20046;-62
2023/05/08 07:52:08;;;;;;;11.75;7.03;;;;;;;;;;4989223;28;20111;-60
2023/05/08 07:55:48;;;;;;;13.70;7.40;;;;;;;;;;4987856;28;20080;-60
2023/05/08 07:59:28;;;;;;;10.38;7.07;;;;;;;;;;4988840;28;20445;-61
2023/05/08 08:03:09;;;;;;;12.90;6.57;;;;;;;;;;4989709;28;20058;-62
2023/05/08 08:06:49;;;;;;;15.55;6.05;;;;;;;;;;4993306;28;20046;-61
2023/05/08 08:10:31;;;;;;;14.15;7.15;;;;;;;;;;4987462;28;20053;-63
2023/05/08 08:14:11;;;;;;;12.43;7.50;;;;;;;;;;4988517;28;20057;-61
2023/05/08 08:17:51;;;;;;;13.10;7.32;;;;;;;;;;4987743;28;20726;-61
2023/05/08 08:21:32;;;;;;;13.00;7.63;;;;;;;;;;5006283;28;20050;-60
2023/05/08 08:25:13;;;;;;;14.55;7.10;;;;;;;;;;4994017;28;20140;-60
2023/05/08 08:28:53;;;;;;;11.98;5.40;;;;;;;;;;4987416;28;20053;-61
2023/05/08 08:32:34;;;;;;;11.80;5.03;;;;;;;;;;4989268;28;20056;-61
2023/05/08 08:36:14;;;;;;;15.85;4.88;;;;;;;;;;4986102;28;20060;-61
2023/05/08 08:39:54;;;;;;;8.30;5.00;;;;;;;;;;4988593;28;20121;-64
2023/05/08 08:43:42;;;;;;;10.90;4.60;;;;;;;;;;4991207;28;20056;-60
2023/05/08 08:47:16;;;;;;;14.32;4.70;;;;;;;;;;4988013;28;20060;-62
2023/05/08 08:50:58;;;;;;;7.72;4.60;;;;;;;;;;4990706;28;20049;-60
2023/05/08 08:54:54;;;;;;;10.70;4.90;;;;;;;;;;4989583;28;20049;-60
2023/05/08 08:58:36;;;;;;;8.55;4.43;;;;;;;;;;4989980;28;20493;-60
2023/05/08 09:02:18;;;;;;;8.45;4.05;;;;;;;;;;4986576;28;20041;-62
2023/05/08 09:05:57;;;;;;;7.78;4.50;;;;;;;;;;4987586;28;20120;-60
2023/05/08 09:09:39;;;;;;;7.68;3.88;;;;;;;;;;4993108;28;20133;-61
2023/05/08 09:13:18;;;;;;;10.73;4.63;;;;;;;;;;4991630;28;20123;-61
2023/05/08 09:16:58;;;;;;;6.97;4.55;;;;;;;;;;4988033;28;20129;-63
2023/05/08 09:20:39;;;;;;;12.77;3.92;;;;;;;;;;4992176;28;20104;-60
2023/05/08 09:24:18;;;;;;;10.05;3.80;;;;;;;;;;4993384;28;20501;-60
2023/05/08 09:28:01;;;;;;;10.98;4.93;;;;;;;;;;4990297;28;20455;-59
2023/05/08 09:31:41;;;;;;;16.42;4.82;;;;;;;;;;4990373;28;20061;-61
2023/05/08 09:35:22;;;;;;;6.97;4.00;;;;;;;;;;4990548;28;20151;-61
2023/05/08 09:39:11;;;;;;;10.82;4.47;;;;;;;;;;4992780;28;20130;-64
2023/05/08 09:42:52;;;;;;;6.95;3.70;;;;;;;;;;4988809;28;20049;-65
2023/05/08 09:46:18;;;;;;;8.98;3.80;;;;;;;;;;4988015;28;20167;-60
2023/05/08 09:49:58;;;;;;;24.80;6.35;;;;;;;;;;4989153;28;20072;-63
2023/05/08 09:53:38;;;;;;;10.82;5.55;;;;;;;;;;4988890;28;20041;-60
2023/05/08 09:57:18;;;;;;;18.08;4.88;;;;;;;;;;4989651;28;20168;-62
2023/05/08 10:00:59;;;;;;;9.40;4.28;;;;;;;;;;4989806;28;20725;-62
2023/05/08 10:04:51;;;;;;;9.30;3.70;;;;;;;;;;4987224;28;20053;-62
2023/05/08 10:08:40;;;;;;;6.47;2.78;;;;;;;;;;4986603;28;20063;-64
2023/05/08 10:12:22;;;;;;;6.13;2.33;;;;;;;;;;4994414;28;20494;-62
2023/05/08 10:16:02;;;;;;;4.82;1.75;;;;;;;;;;4986213;28;20797;-61
2023/05/08 10:19:42;;;;;;;4.72;2.28;;;;;;;;;;4990018;28;20045;-61
2023/05/08 10:23:22;;;;;;;4.13;2.00;;;;;;;;;;4990981;28;20081;-61
2023/05/08 10:26:53;;;;;;;2.42;1.63;;;;;;;;;;4984867;28;20402;-60
2023/05/08 10:30:32;;;;;;;4.50;1.42;;;;;;;;;;4984767;28;20096;-65
2023/05/08 10:34:12;;;;;;;3.33;2.00;;;;;;;;;;4986490;28;20084;-63
2023/05/08 10:37:52;;;;;;;4.55;1.63;;;;;;;;;;4986774;28;20084;-61
2023/05/08 10:41:33;;;;;;;2.88;1.50;;;;;;;;;;4986098;28;20553;-60
2023/05/08 10:45:13;;;;;;;3.50;1.67;;;;;;;;;;4985301;28;20264;-62
2023/05/08 10:48:42;;;;;;;5.35;2.08;;;;;;;;;;4986032;28;20513;-61
2023/05/08 10:52:26;;;;;;;4.72;2.22;;;;;;;;;;4986665;28;20045;-64
2023/05/08 10:56:09;;;;;;;6.35;1.70;;;;;;;;;;4983739;28;20059;-64
2023/05/08 10:59:49;;;;;;;6.40;1.80;;;;;;;;;;4988125;28;20342;-60
2023/05/08 11:03:30;;;;;;;3.38;1.48;;;;;;;;;;4994429;28;20069;-60
2023/05/08 11:07:24;;;;;;;3.22;1.60;;;;;;;;;;4992172;28;20049;-61
2023/05/08 11:11:10;;;;;;;6.05;1.83;;;;;;;;;;4994179;28;20049;-62
2023/05/08 11:14:50;;;;;;;4.40;1.15;;;;;;;;;;4994035;28;20105;-62
2023/05/08 11:18:31;;;;;;;3.60;1.65;;;;;;;;;;4991628;28;20164;-60
2023/05/08 11:22:12;;;;;;;5.68;1.70;;;;;;;;;;4993172;28;20050;-60
2023/05/08 11:26:02;;;;;;;5.22;1.60;;;;;;;;;;4990814;28;20442;-64
2023/05/08 11:29:43;;;;;;;4.97;1.70;;;;;;;;;;4991321;28;20057;-63
2023/05/08 11:33:18;;;;;;;5.05;1.52;;;;;;;;;;4990016;28;20930;-62
2023/05/08 11:36:38;;;;;;;;;;;;;;;;;;4991987;28;20084;-65
2023/05/08 11:40:19;;;;;;;7.13;1.70;;;;;;;;;;4989886;28;20127;-63
2023/05/08 11:43:31;;;;;;;5.25;1.92;;;;;;;;;;4991637;28;20050;-63
2023/05/08 11:47:23;;;;;;;7.43;1.60;;;;;;;;;;4992969;28;20361;-62
2023/05/08 11:51:01;;;;;;;4.35;1.50;;;;;;;;;;4991588;28;20058;-66
2023/05/08 11:54:42;;;;;;;3.78;1.90;;;;;;;;;;4992122;28;20041;-63
2023/05/08 11:58:22;;;;;;;3.67;1.60;;;;;;;;;;4992029;28;20050;-62
2023/05/08 12:02:03;;;;;;;4.97;2.10;;;;;;;;;;4991230;28;20460;-68
2023/05/08 12:05:44;;;;;;;4.20;2.15;;;;;;;;;;4992674;28;20068;-65
2023/05/08 12:09:11;;;;;;;5.38;2.08;;;;;;;;;;4991391;28;20589;-64
2023/05/08 12:12:57;;;;;;;3.65;1.80;;;;;;;;;;4989584;28;20081;-62
2023/05/08 12:16:37;;;;;;;10.57;4.20;;;;;;;;;;4990201;28;20299;-62
2023/05/08 12:20:17;;;;;;;6.30;2.67;;;;;;;;;;4997065;28;20046;-62
2023/05/08 12:23:58;;;;;;;6.10;2.33;;;;;;;;;;4989417;28;20089;-65
2023/05/08 12:27:38;;;;;;;4.70;2.72;;;;;;;;;;4988969;28;20057;-63
2023/05/08 12:31:18;;;;;;;12.55;3.15;;;;;;;;;;4988073;28;20416;-62
2023/05/08 12:34:59;;;;;;;6.85;2.72;;;;;;;;;;4985340;28;20054;-66
2023/05/08 12:38:39;;;;;;;10.20;4.32;;;;;;;;;;4989952;28;20641;-60
2023/05/08 12:42:27;;;;;;;7.22;2.40;;;;;;;;;;4987194;28;20050;-62
2023/05/08 12:46:07;;;;;;;10.88;3.10;;;;;;;;;;4986948;28;20494;-62
2023/05/08 12:49:49;;;;;;;5.70;3.15;;;;;;;;;;4986357;28;20155;-61
2023/05/08 12:53:31;;;;;;;10.85;3.58;;;;;;;;;;4988297;28;20062;-63
2023/05/08 12:57:12;;;;;;;7.00;3.63;;;;;;;;;;4988944;28;20144;-63
2023/05/08 13:01:01;;;;;;;8.25;3.30;;;;;;;;;;4987989;28;20127;-61
2023/05/08 13:04:42;;;;;;;6.45;3.38;;;;;;;;;;4989733;28;20666;-68
2023/05/08 13:08:22;;;;;;;6.55;3.38;;;;;;;;;;4989175;28;20053;-63
2023/05/08 13:12:08;;;;;;;5.43;3.40;;;;;;;;;;4988451;28;20045;-66
2023/05/08 13:15:49;;;;;;;5.38;3.40;;;;;;;;;;4988642;28;20110;-65
2023/05/08 13:19:29;;;;;;;8.55;3.40;;;;;;;;;;4988684;28;20111;-61
2023/05/08 13:23:09;;;;;;;13.73;3.30;;;;;;;;;;4993394;28;20244;-61
2023/05/08 13:26:50;;;;;;;7.10;3.28;;;;;;;;;;4986696;28;20145;-63
2023/05/08 13:30:30;;;;;;;14.88;3.00;;;;;;;;;;4986914;28;20124;-62
2023/05/08 13:34:11;;;;;;;7.63;3.08;;;;;;;;;;4985946;28;20076;-62
2023/05/08 13:37:51;;;;;;;10.70;3.38;;;;;;;;;;4986645;28;20051;-61
2023/05/08 13:41:31;;;;;;;5.40;3.20;;;;;;;;;;4985002;28;20054;-61
2023/05/08 13:45:14;;;;;;;10.45;3.75;;;;;;;;;;4987186;28;20050;-64
2023/05/08 13:48:54;;;;;;;9.95;3.72;;;;;;;;;;4986258;28;20054;-63
2023/05/08 13:52:35;;;;;;;8.75;4.28;;;;;;;;;;4984635;28;20153;-68
2023/05/08 13:56:15;;;;;;;13.38;4.47;;;;;;;;;;4985810;28;20559;-64
2023/05/08 13:59:55;;;;;;;10.88;3.92;;;;;;;;;;4989132;28;20041;-64
2023/05/08 14:03:37;;;;;;;9.27;3.90;;;;;;;;;;4988173;28;20853;-62
2023/05/08 14:07:17;;;;;;;12.93;4.00;;;;;;;;;;4984975;28;20050;-66
2023/05/08 14:10:58;;;;;;;11.98;3.70;;;;;;;;;;4985156;28;20244;-64
2023/05/08 14:14:38;;;;;;;10.18;3.90;;;;;;;;;;4985290;28;20379;-66
2023/05/08 14:18:19;;;;;;;9.07;3.33;;;;;;;;;;4985102;28;20081;-62
2023/05/08 14:21:59;;;;;;;9.50;4.07;;;;;;;;;;4988234;28;20416;-65
2023/05/08 14:25:39;;;;;;;11.95;4.18;;;;;;;;;;4987920;28;20045;-62
2023/05/08 14:29:20;;;;;;;6.30;3.70;;;;;;;;;;4986406;28;20291;-63
2023/05/08 14:33:00;;;;;;;6.53;3.75;;;;;;;;;;4984530;28;20121;-62
2023/05/08 14:36:40;;;;;;;12.43;4.05;;;;;;;;;;4985262;28;20054;-62
2023/05/08 14:40:21;;;;;;;8.38;4.20;;;;;;;;;;4982919;28;20453;-62
2023/05/08 14:44:02;;;;;;;10.65;3.60;;;;;;;;;;4985332;28;20038;-66
2023/05/08 14:47:43;;;;;;;8.05;3.92;;;;;;;;;;4985070;28;20050;-62
2023/05/08 14:51:23;;;;;;;6.50;3.05;;;;;;;;;;4986309;28;20096;-63
2023/05/08 14:55:03;;;;;;;8.77;3.70;;;;;;;;;;4985240;28;20081;-64
2023/05/08 14:58:44;;;;;;;8.55;3.42;;;;;;;;;;4986520;28;20045;-63
2023/05/08 15:02:24;;;;;;;6.80;3.55;;;;;;;;;;4988355;28;20058;-62
2023/05/08 15:06:04;;;;;;;7.57;3.92;;;;;;;;;;4981739;28;20502;-65
2023/05/08 15:09:46;;;;;;;7.03;3.63;;;;;;;;;;4989469;28;20391;-69
2023/05/08 15:13:26;;;;;;;8.57;3.80;;;;;;;;;;4990331;28;20069;-69
2023/05/08 15:17:08;;;;;;;6.40;4.07;;;;;;;;;;4986281;28;20097;-67
2023/05/08 15:20:49;;;;;;;8.30;4.10;;;;;;;;;;4990800;28;20111;-68
2023/05/08 15:24:29;;;;;;;10.35;3.65;;;;;;;;;;4983574;28;20255;-69
2023/05/08 15:28:09;;;;;;;8.98;3.70;;;;;;;;;;4986315;28;20513;-69
2023/05/08 15:31:50;;;;;;;6.95;3.75;;;;;;;;;;4987875;28;20143;-69
2023/05/08 15:35:30;;;;;;;7.60;4.28;;;;;;;;;;4981949;28;20521;-68
2023/05/08 15:39:10;;;;;;;7.32;3.88;;;;;;;;;;4985645;28;20038;-67
2023/05/08 15:42:51;;;;;;;8.57;3.65;;;;;;;;;;4987861;28;20543;-68
2023/05/08 15:46:31;;;;;;;4.97;3.38;;;;;;;;;;4986196;28;20179;-67
2023/05/08 15:50:11;;;;;;;8.05;3.78;;;;;;;;;;4984922;28;20755;-67
2023/05/08 15:53:52;;;;;;;9.25;3.85;;;;;;;;;;4989916;28;20067;-70
2023/05/08 15:57:32;;;;;;;8.75;3.90;;;;;;;;;;4987594;28;20049;-69
2023/05/08 16:01:12;;;;;;;9.18;3.63;;;;;;;;;;4989524;28;20531;-70
2023/05/08 16:04:54;;;;;;;9.77;3.40;;;;;;;;;;4989010;28;20054;-70
2023/05/08 16:08:35;;;;;;;11.38;3.72;;;;;;;;;;4985322;28;20061;-66
2023/05/08 16:12:16;;;;;;;9.52;3.70;;;;;;;;;;4987179;28;20058;-65
2023/05/08 16:15:55;;;;;;;7.85;4.20;;;;;;;;;;4986330;28;20152;-67
2023/05/08 16:19:36;;;;;;;9.13;4.38;;;;;;;;;;4993270;28;20112;-68
2023/05/08 16:23:17;;;;;;;12.02;3.90;;;;;;;;;;4987114;28;20058;-65
2023/05/08 16:26:57;;;;;;;6.20;3.28;;;;;;;;;;4988461;28;20057;-66
2023/05/08 16:30:38;;;;;;;9.73;3.05;;;;;;;;;;4987718;28;20781;-67
2023/05/08 16:34:18;;;;;;;7.05;3.33;;;;;;;;;;4989977;28;20050;-64
2023/05/08 16:37:58;;;;;;;5.68;2.88;;;;;;;;;;4988744;28;20075;-66
2023/05/08 16:41:42;;;;;;;4.93;2.47;;;;;;;;;;4986737;28;22022;-65
2023/05/08 16:45:25;;;;;;;7.25;2.63;;;;;;;;;;4986937;28;20057;-65
2023/05/08 16:49:05;;;;;;;4.28;2.25;;;;;;;;;;4989218;28;20634;-66
2023/05/08 16:52:46;;;;;;;9.07;2.83;;;;;;;;;;4991658;28;20061;-65
2023/05/08 16:56:26;;;;;;;5.93;2.55;;;;;;;;;;4990344;28;20045;-66
2023/05/08 17:00:06;;;;;;;11.27;2.88;;;;;;;;;;4987731;28;20049;-67
2023/05/08 17:03:47;;;;;;;7.93;2.40;;;;;;;;;;4987989;28;20069;-66
2023/05/08 17:07:27;;;;;;;6.82;2.45;;;;;;;;;;4987240;28;20541;-66
2023/05/08 17:11:08;;;;;;;6.90;2.60;;;;;;;;;;4990174;28;20041;-68
2023/05/08 17:14:49;;;;;;;8.55;2.65;;;;;;;;;;4988708;28;20376;-67
2023/05/08 17:18:29;;;;;;;6.90;2.85;;;;;;;;;;4989952;28;20061;-65
2023/05/08 17:22:10;;;;;;;6.65;3.00;;;;;;;;;;4988291;28;20508;-66
2023/05/08 17:25:51;;;;;;;6.18;2.53;;;;;;;;;;4988789;28;20302;-66
2023/05/08 17:29:31;;;;;;;8.20;2.70;;;;;;;;;;4993015;28;20050;-68
2023/05/08 17:33:11;;;;;;;7.25;2.90;;;;;;;;;;4988134;28;20619;-65
2023/05/08 17:36:52;;;;;;;8.85;2.60;;;;;;;;;;4987017;28;20061;-67
2023/05/08 17:40:33;;;;;;;10.27;2.85;;;;;;;;;;4987083;28;20045;-67
2023/05/08 17:44:14;;;;;;;7.35;3.42;;;;;;;;;;4986584;28;20552;-65
2023/05/08 17:47:54;;;;;;;9.27;3.42;;;;;;;;;;4986144;28;20057;-67
2023/05/08 17:51:34;;;;;;;9.07;3.28;;;;;;;;;;4984849;28;20081;-66
2023/05/08 17:55:15;;;;;;;6.88;3.08;;;;;;;;;;4986410;28;20041;-66
2023/05/08 17:58:55;;;;;;;8.30;3.45;;;;;;;;;;4987666;28;20050;-67
2023/05/08 18:02:36;;;;;;;9.75;3.40;;;;;;;;;;4988203;28;20446;-68
2023/05/08 18:06:18;;;;;;;9.73;3.70;;;;;;;;;;4984498;28;20058;-66
2023/05/08 18:09:59;;;;;;;9.50;3.88;;;;;;;;;;4984230;28;20092;-68
2023/05/08 18:13:39;;;;;;;12.50;4.05;;;;;;;;;;4987302;28;20263;-68
2023/05/08 18:17:21;;;;;;;10.98;3.75;;;;;;;;;;4984978;28;20038;-68
2023/05/08 18:21:01;;;;;;;8.30;3.70;;;;;;;;;;4986442;28;20046;-70
2023/05/08 18:24:41;;;;;;;9.95;3.95;;;;;;;;;;4987560;28;20049;-68
2023/05/08 18:28:22;;;;;;;8.77;3.92;;;;;;;;;;4989458;28;20042;-69
2023/05/08 18:32:02;;;;;;;9.23;3.97;;;;;;;;;;4981478;28;20140;-70
2023/05/08 18:35:42;;;;;;;10.25;4.47;;;;;;;;;;4987373;28;20053;-67
2023/05/08 18:39:23;;;;;;;9.15;3.55;;;;;;;;;;4985227;28;20243;-66
2023/05/08 18:43:03;;;;;;;12.18;4.60;;;;;;;;;;4988426;28;20139;-69
2023/05/08 18:46:49;;;;;;;12.25;4.40;;;;;;;;;;4987085;28;20633;-66
2023/05/08 18:50:10;;;;;;;;;;;;;;;;;;4985747;28;20145;-70
2023/05/08 18:53:51;;;;;;;12.30;4.35;;;;;;;;;;4989546;28;20585;-69
2023/05/08 18:57:31;;;;;;;9.77;4.20;;;;;;;;;;4981429;28;20095;-68
2023/05/08 19:01:18;;;;;;;12.73;4.50;;;;;;;;;;4986777;28;20057;-69
2023/05/08 19:04:55;;;;;;;12.88;4.70;;;;;;;;;;4985980;28;20057;-69
2023/05/08 19:08:35;;;;;;;12.25;5.03;;;;;;;;;;4990845;28;20121;-70
2023/05/08 19:12:15;;;;;;;12.55;4.60;;;;;;;;;;4991349;28;20060;-70
2023/05/08 19:15:56;;;;;;;12.35;5.22;;;;;;;;;;4986206;28;20509;-67
2023/05/08 19:19:36;;;;;;;13.85;5.15;;;;;;;;;;4998449;28;20041;-68
2023/05/08 19:23:16;;;;;;;12.57;4.82;;;;;;;;;;5008693;28;20621;-69
2023/05/08 19:26:57;;;;;;;11.25;4.85;;;;;;;;;;4989786;28;20140;-69
2023/05/08 19:30:38;;;;;;;10.13;5.10;;;;;;;;;;4987083;28;20057;-71
2023/05/08 19:34:18;;;;;;;12.32;5.50;;;;;;;;;;4989005;28;20159;-68
2023/05/08 19:37:59;;;;;;;10.70;5.50;;;;;;;;;;4987602;28;20049;-69
2023/05/08 19:41:42;;;;;;;9.57;5.25;;;;;;;;;;4986681;28;20419;-70
2023/05/08 19:45:21;;;;;;;10.02;5.40;;;;;;;;;;4987668;28;20096;-70
2023/05/08 19:49:01;;;;;;;11.65;4.93;;;;;;;;;;4982814;28;20053;-70
2023/05/08 19:52:41;;;;;;;13.25;5.68;;;;;;;;;;4987072;28;20131;-69
2023/05/08 19:56:22;;;;;;;13.68;5.22;;;;;;;;;;4987173;28;20054;-66
2023/05/08 20:00:02;;;;;;;21.58;5.85;;;;;;;;;;4988126;28;20054;-65
2023/05/08 20:03:43;;;;;;;10.98;5.38;;;;;;;;;;4990030;28;20076;-65
2023/05/08 20:07:23;;;;;;;25.27;6.78;;;;;;;;;;4989423;28;20096;-64
2023/05/08 20:11:06;;;;;;;11.82;5.70;;;;;;;;;;4988677;28;20112;-68
2023/05/08 20:14:44;;;;;;;12.68;6.28;;;;;;;;;;4981554;28;20059;-65
2023/05/08 20:18:24;;;;;;;13.27;5.93;;;;;;;;;;4994296;28;20050;-66
2023/05/08 20:22:06;;;;;;;14.63;6.55;;;;;;;;;;4987021;28;20124;-65
2023/05/08 20:25:46;;;;;;;12.57;6.38;;;;;;;;;;4992422;28;20053;-64
2023/05/08 20:29:26;;;;;;;14.57;6.90;;;;;;;;;;4988661;28;20438;-66
2023/05/08 20:33:07;;;;;;;15.65;6.40;;;;;;;;;;4987381;28;20512;-65
2023/05/08 20:36:47;;;;;;;14.93;6.38;;;;;;;;;;4991229;28;21069;-65
2023/05/08 20:40:28;;;;;;;11.77;6.07;;;;;;;;;;4991043;28;21892;-65